createdAt,value
2022-11-27T00:00:16.332Z,10.57
2022-11-27T00:02:46.492Z,10.65
2022-11-27T00:05:19.528Z,10.74
2022-11-27T00:07:49.602Z,10.78
2022-11-27T00:10:19.849Z,10.80
2022-11-27T00:12:49.875Z,10.96
2022-11-27T00:15:20.089Z,11.09
2022-11-27T00:17:50.003Z,11.06
2022-11-27T00:20:26.104Z,11.17
2022-11-27T00:22:58.487Z,11.23
2022-11-27T00:25:28.677Z,11.30
2022-11-27T00:27:58.774Z,11.33
2022-11-27T00:30:28.721Z,11.38
2022-11-27T00:32:58.697Z,11.41
2022-11-27T00:35:31.448Z,11.45
2022-11-27T00:38:01.425Z,11.45
2022-11-27T00:40:31.389Z,11.26
2022-11-27T00:43:01.528Z,11.28
2022-11-27T00:45:31.856Z,11.32
2022-11-27T00:48:01.833Z,11.22
2022-11-27T00:50:34.745Z,11.26
2022-11-27T00:53:04.744Z,11.28
2022-11-27T00:55:34.775Z,11.31
2022-11-27T00:58:04.774Z,11.25
2022-11-27T01:00:34.787Z,11.24
2022-11-27T01:03:04.848Z,11.27
2022-11-27T01:05:38.917Z,11.36
2022-11-27T01:08:08.886Z,11.44
2022-11-27T01:10:38.957Z,11.46
2022-11-27T01:13:08.996Z,11.47
2022-11-27T01:15:39.084Z,11.51
2022-11-27T01:18:09.036Z,11.48
2022-11-27T01:20:43.726Z,11.47
2022-11-27T01:23:13.690Z,11.47
2022-11-27T01:25:43.843Z,11.48
2022-11-27T01:28:13.735Z,11.51
2022-11-27T01:30:44.146Z,11.45
2022-11-27T01:33:14.346Z,11.43
2022-11-27T01:35:55.485Z,11.46
2022-11-27T01:38:40.560Z,11.45
2022-11-27T01:41:15.736Z,11.40
2022-11-27T01:43:47.802Z,11.32
2022-11-27T01:46:35.678Z,11.27
2022-11-27T01:49:27.960Z,11.29
2022-11-27T01:52:05.032Z,11.28
2022-11-27T01:54:40.370Z,11.32
2022-11-27T01:57:15.311Z,11.38
2022-11-27T01:59:46.700Z,11.40
2022-11-27T02:02:17.244Z,11.29
2022-11-27T02:04:47.568Z,11.32
2022-11-27T02:07:20.219Z,11.35
2022-11-27T02:09:50.328Z,11.26
2022-11-27T02:12:25.932Z,11.15
2022-11-27T02:15:03.907Z,11.11
2022-11-27T02:17:41.845Z,11.22
2022-11-27T02:20:26.769Z,11.26
2022-11-27T02:23:16.601Z,11.31
2022-11-27T02:26:02.986Z,11.30
2022-11-27T02:28:44.421Z,11.09
2022-11-27T02:31:23.199Z,10.91
2022-11-27T02:33:57.832Z,11.06
2022-11-27T02:36:32.875Z,11.08
2022-11-27T02:39:07.642Z,10.98
2022-11-27T02:41:47.377Z,10.24
2022-11-27T02:44:19.683Z,10.55
2022-11-27T02:46:53.241Z,10.48
2022-11-27T02:49:24.709Z,10.35
2022-11-27T02:51:59.061Z,10.17
2022-11-27T02:54:31.862Z,10.03
2022-11-27T02:57:04.910Z,9.87
2022-11-27T02:59:37.817Z,9.83
2022-11-27T03:02:16.733Z,10.41
2022-11-27T03:04:52.870Z,10.42
2022-11-27T03:07:28.627Z,10.36
2022-11-27T03:10:05.061Z,10.56
2022-11-27T03:12:35.390Z,10.40
2022-11-27T03:15:06.306Z,10.31
2022-11-27T03:17:52.402Z,10.39
2022-11-27T03:20:26.708Z,10.63
2022-11-27T03:22:57.774Z,10.65
2022-11-27T03:25:27.980Z,10.78
2022-11-27T03:28:01.276Z,10.88
2022-11-27T03:30:31.439Z,10.89
2022-11-27T03:33:05.027Z,10.71
2022-11-27T03:35:34.985Z,10.63
2022-11-27T03:38:05.137Z,10.48
2022-11-27T03:40:47.487Z,10.09
2022-11-27T03:43:25.759Z,10.12
2022-11-27T03:46:02.868Z,10.38
2022-11-27T03:48:41.031Z,10.56
2022-11-27T03:51:18.253Z,10.51
2022-11-27T03:53:55.823Z,10.58
2022-11-27T03:56:36.827Z,10.55
2022-11-27T03:59:11.977Z,10.41
2022-11-27T04:01:43.415Z,10.30
2022-11-27T04:04:16.111Z,10.39
2022-11-27T04:06:46.178Z,10.29
2022-11-27T04:09:16.090Z,10.34
2022-11-27T04:11:46.028Z,10.56
2022-11-27T04:14:16.117Z,10.51
2022-11-27T04:16:46.110Z,10.68
2022-11-27T04:19:18.884Z,10.42
2022-11-27T04:21:48.787Z,10.49
2022-11-27T04:24:18.893Z,10.35
2022-11-27T04:26:48.864Z,9.92
2022-11-27T04:29:19.117Z,9.88
2022-11-27T04:31:49.087Z,10.08
2022-11-27T04:34:21.946Z,10.21
2022-11-27T04:36:52.100Z,10.33
2022-11-27T04:39:22.037Z,9.86
2022-11-27T04:41:52.070Z,9.43
2022-11-27T04:44:22.856Z,10.07
2022-11-27T04:46:53.424Z,9.97
2022-11-27T04:49:26.088Z,9.83
2022-11-27T04:51:56.102Z,10.07
2022-11-27T04:54:26.201Z,10.19
2022-11-27T04:56:56.122Z,9.93
2022-11-27T04:59:26.110Z,9.88
2022-11-27T05:01:56.175Z,9.88
2022-11-27T05:04:28.795Z,9.88
2022-11-27T05:06:58.786Z,9.77
2022-11-27T05:09:28.847Z,9.69
2022-11-27T05:11:58.764Z,9.89
2022-11-27T05:14:29.370Z,9.21
2022-11-27T05:17:01.433Z,9.68
2022-11-27T05:19:34.546Z,10.05
2022-11-27T05:22:04.718Z,10.23
2022-11-27T05:24:34.931Z,10.05
2022-11-27T05:27:04.933Z,10.19
2022-11-27T05:29:34.868Z,10.06
2022-11-27T05:32:04.853Z,10.17
2022-11-27T05:34:37.615Z,10.13
2022-11-27T05:37:07.794Z,10.15
2022-11-27T05:39:38.193Z,10.21
2022-11-27T05:42:08.304Z,10.30
2022-11-27T05:44:38.419Z,10.21
2022-11-27T05:47:08.708Z,10.15
2022-11-27T05:49:41.360Z,10.08
2022-11-27T05:52:11.343Z,10.01
2022-11-27T05:54:41.558Z,9.86
2022-11-27T05:57:11.782Z,9.98
2022-11-27T05:59:41.687Z,9.85
2022-11-27T06:02:16.451Z,10.02
2022-11-27T06:04:52.647Z,9.82
2022-11-27T06:07:22.727Z,9.89
2022-11-27T06:09:52.721Z,9.93
2022-11-27T06:12:22.688Z,9.79
2022-11-27T06:14:52.872Z,9.90
2022-11-27T06:17:22.955Z,9.79
2022-11-27T06:19:55.592Z,9.84
2022-11-27T06:22:25.584Z,9.87
2022-11-27T06:24:55.493Z,9.89
2022-11-27T06:27:25.701Z,9.80
2022-11-27T06:29:55.677Z,9.65
2022-11-27T06:32:25.653Z,9.78
2022-11-27T06:34:58.247Z,9.60
2022-11-27T06:37:28.601Z,9.44
2022-11-27T06:39:58.519Z,9.55
2022-11-27T06:42:28.485Z,9.67
2022-11-27T06:44:58.490Z,9.61
2022-11-27T06:47:28.396Z,9.70
2022-11-27T06:50:00.878Z,9.49
2022-11-27T06:52:32.759Z,9.54
2022-11-27T06:55:05.946Z,9.53
2022-11-27T06:57:35.868Z,9.63
2022-11-27T07:00:06.235Z,9.55
2022-11-27T07:02:36.350Z,9.65
2022-11-27T07:05:09.281Z,9.61
2022-11-27T07:07:43.646Z,9.54
2022-11-27T07:10:14.534Z,9.39
2022-11-27T07:12:44.546Z,9.55
2022-11-27T07:15:14.566Z,9.05
2022-11-27T07:17:44.515Z,9.06
2022-11-27T07:20:17.327Z,9.08
2022-11-27T07:22:47.300Z,9.30
2022-11-27T07:25:17.250Z,9.44
2022-11-27T07:27:47.233Z,9.56
2022-11-27T07:30:18.429Z,9.61
2022-11-27T07:32:48.391Z,9.19
2022-11-27T07:35:21.457Z,9.54
2022-11-27T07:37:51.415Z,9.61
2022-11-27T07:40:21.531Z,9.73
2022-11-27T07:42:51.550Z,9.24
2022-11-27T07:45:21.519Z,9.39
2022-11-27T07:47:51.528Z,9.61
2022-11-27T07:50:24.223Z,9.58
2022-11-27T07:52:54.205Z,9.43
2022-11-27T07:55:24.201Z,9.73
2022-11-27T07:57:54.276Z,9.78
2022-11-27T08:00:24.834Z,9.97
2022-11-27T08:02:54.840Z,10.16
2022-11-27T08:05:27.382Z,10.46
2022-11-27T08:07:57.851Z,10.55
2022-11-27T08:10:27.823Z,10.27
2022-11-27T08:13:00.444Z,10.53
2022-11-27T08:15:32.602Z,10.49
2022-11-27T08:18:02.853Z,10.12
2022-11-27T08:20:35.432Z,10.28
2022-11-27T08:23:05.354Z,10.37
2022-11-27T08:25:35.330Z,10.34
2022-11-27T08:28:05.525Z,10.52
2022-11-27T08:30:35.551Z,10.98
2022-11-27T08:33:05.600Z,11.54
2022-11-27T08:35:38.301Z,11.14
2022-11-27T08:38:08.397Z,11.55
2022-11-27T08:40:38.587Z,12.03
2022-11-27T08:43:08.567Z,12.27
2022-11-27T08:45:40.843Z,12.34
2022-11-27T08:48:11.259Z,12.39
2022-11-27T08:50:43.879Z,12.06
2022-11-27T08:53:14.841Z,11.98
2022-11-27T08:55:45.133Z,12.35
2022-11-27T08:58:15.412Z,12.86
2022-11-27T09:00:45.406Z,13.29
2022-11-27T09:03:15.525Z,12.52
2022-11-27T09:05:48.305Z,12.44
2022-11-27T09:08:21.522Z,12.60
2022-11-27T09:10:51.690Z,12.71
2022-11-27T09:13:21.899Z,13.60
2022-11-27T09:15:52.542Z,14.68
2022-11-27T09:18:22.509Z,15.34
2022-11-27T09:21:01.871Z,16.19
2022-11-27T09:23:32.538Z,16.69
2022-11-27T09:26:03.048Z,16.13
2022-11-27T09:28:34.586Z,16.46
2022-11-27T09:31:06.279Z,17.17
2022-11-27T09:33:38.683Z,18.28
2022-11-27T09:36:14.936Z,18.90
2022-11-27T09:38:45.440Z,19.74
2022-11-27T09:41:46.618Z,19.94
2022-11-27T09:44:32.500Z,20.63
2022-11-27T09:47:10.078Z,20.36
2022-11-27T09:49:48.885Z,20.96
2022-11-27T09:52:28.359Z,20.85
2022-11-27T09:55:04.443Z,20.85
2022-11-27T09:57:37.999Z,21.32
2022-11-27T10:00:10.422Z,21.87
2022-11-27T10:02:40.544Z,22.44
2022-11-27T10:05:18.027Z,22.09
2022-11-27T10:08:13.752Z,22.76
2022-11-27T10:10:49.863Z,23.17
2022-11-27T10:13:43.982Z,23.34
2022-11-27T10:16:23.111Z,23.60
2022-11-27T10:18:57.333Z,23.92
2022-11-27T10:21:35.408Z,24.13
2022-11-27T10:24:19.283Z,23.96
2022-11-27T10:26:51.032Z,24.49
2022-11-27T10:29:33.528Z,23.96
2022-11-27T10:32:07.861Z,24.07
2022-11-27T10:34:42.413Z,24.82
2022-11-27T10:37:20.495Z,23.92
2022-11-27T10:39:58.852Z,23.61
2022-11-27T10:42:35.188Z,24.60
2022-11-27T10:45:08.790Z,24.24
2022-11-27T10:47:42.309Z,24.93
2022-11-27T10:50:16.977Z,24.77
2022-11-27T10:52:52.902Z,25.37
2022-11-27T10:55:37.743Z,26.39
2022-11-27T10:58:18.698Z,26.09
2022-11-27T11:00:50.052Z,24.67
2022-11-27T11:03:21.030Z,25.71
2022-11-27T11:08:50.943Z,26.56
2022-11-27T11:11:30.672Z,27.43
2022-11-27T11:14:01.016Z,28.02
2022-11-27T11:16:35.263Z,27.63
2022-11-27T11:19:08.557Z,27.11
2022-11-27T11:21:44.878Z,27.43
2022-11-27T11:24:19.177Z,27.64
2022-11-27T11:26:54.212Z,26.16
2022-11-27T11:29:37.635Z,26.53
2022-11-27T11:32:13.190Z,26.53
2022-11-27T11:34:49.062Z,22.69
2022-11-27T11:37:26.591Z,21.04
2022-11-27T11:40:02.443Z,18.57
2022-11-27T11:42:37.012Z,17.73
2022-11-27T11:45:09.948Z,17.10
2022-11-27T11:47:47.470Z,17.89
2022-11-27T11:50:27.851Z,18.52
2022-11-27T11:53:02.540Z,19.26
2022-11-27T11:55:38.605Z,21.06
2022-11-27T11:58:42.059Z,22.96
2022-11-27T12:01:27.515Z,26.09
2022-11-27T12:04:10.470Z,25.98
2022-11-27T12:06:51.508Z,26.89
2022-11-27T12:09:33.919Z,28.17
2022-11-27T12:12:14.220Z,26.69
2022-11-27T12:14:53.118Z,26.11
2022-11-27T12:17:42.702Z,25.94
2022-11-27T12:20:19.836Z,25.55
2022-11-27T12:23:16.013Z,23.83
2022-11-27T12:25:56.373Z,23.32
2022-11-27T12:28:41.665Z,23.62
2022-11-27T12:31:26.058Z,23.25
2022-11-27T12:34:04.269Z,21.91
2022-11-27T12:36:59.239Z,20.54
2022-11-27T12:39:36.001Z,19.34
2022-11-27T12:42:21.754Z,19.30
2022-11-27T12:44:59.731Z,19.60
2022-11-27T12:47:40.377Z,22.04
2022-11-27T12:50:18.022Z,23.42
2022-11-27T12:52:54.280Z,24.23
2022-11-27T12:55:27.613Z,23.94
2022-11-27T12:58:03.988Z,22.07
2022-11-27T13:00:37.955Z,21.65
2022-11-27T13:03:18.896Z,22.08
2022-11-27T13:05:54.408Z,21.44
2022-11-27T13:08:29.314Z,21.24
2022-11-27T13:11:04.178Z,20.69
2022-11-27T13:13:40.383Z,19.98
2022-11-27T13:16:18.816Z,20.47
2022-11-27T13:18:57.493Z,20.53
2022-11-27T13:21:30.901Z,21.46
2022-11-27T13:24:04.179Z,22.63
2022-11-27T13:26:38.046Z,22.50
2022-11-27T13:29:16.517Z,21.19
2022-11-27T13:31:49.610Z,19.77
2022-11-27T13:34:24.785Z,18.09
2022-11-27T13:37:00.737Z,17.29
2022-11-27T13:39:33.078Z,16.20
2022-11-27T13:42:08.561Z,14.98
2022-11-27T13:44:42.785Z,14.47
2022-11-27T13:47:18.043Z,14.90
2022-11-27T13:50:03.120Z,14.99
2022-11-27T13:52:33.443Z,14.77
2022-11-27T13:55:05.526Z,14.67
2022-11-27T13:57:38.472Z,14.52
2022-11-27T14:00:11.651Z,14.28
2022-11-27T14:02:46.421Z,14.05
2022-11-27T14:05:21.141Z,13.12
2022-11-27T14:07:53.645Z,13.36
2022-11-27T14:10:26.018Z,13.37
2022-11-27T14:12:58.271Z,13.27
2022-11-27T14:15:30.543Z,13.44
2022-11-27T14:18:10.291Z,13.49
2022-11-27T14:20:53.442Z,13.50
2022-11-27T14:23:31.140Z,13.47
2022-11-27T14:26:10.686Z,13.41
2022-11-27T14:28:46.150Z,13.30
2022-11-27T14:31:30.458Z,13.29
2022-11-27T14:34:23.196Z,13.21
2022-11-27T14:36:56.348Z,13.12
2022-11-27T14:39:27.986Z,13.05
2022-11-27T14:42:03.143Z,13.01
2022-11-27T14:44:33.777Z,12.89
2022-11-27T14:47:06.458Z,12.75
2022-11-27T14:49:36.958Z,12.79
2022-11-27T14:52:18.149Z,12.73
2022-11-27T14:54:48.301Z,12.70
2022-11-27T14:57:24.973Z,12.62
2022-11-27T15:00:05.390Z,12.69
2022-11-27T15:02:35.441Z,12.66
2022-11-27T15:05:07.756Z,12.61
2022-11-27T15:07:46.743Z,12.66
2022-11-27T15:10:35.117Z,12.66
2022-11-27T15:13:07.085Z,12.51
2022-11-27T15:15:46.640Z,12.54
2022-11-27T15:18:23.556Z,12.47
2022-11-27T15:20:54.662Z,12.47
2022-11-27T15:23:30.915Z,12.45
2022-11-27T15:26:15.093Z,12.40
2022-11-27T15:28:54.784Z,12.33
2022-11-27T15:31:37.467Z,12.22
2022-11-27T15:34:09.034Z,12.24
2022-11-27T15:36:44.757Z,12.24
2022-11-27T15:39:28.762Z,12.18
2022-11-27T15:42:00.136Z,12.18
2022-11-27T15:44:33.310Z,12.15
2022-11-27T15:47:05.136Z,11.98
2022-11-27T15:49:35.621Z,11.93
2022-11-27T15:52:05.819Z,11.87
2022-11-27T15:54:38.444Z,11.85
2022-11-27T15:57:08.440Z,11.86
2022-11-27T15:59:38.567Z,11.86
2022-11-27T16:02:13.133Z,11.81
2022-11-27T16:04:46.089Z,11.82
2022-11-27T16:07:16.097Z,11.82
2022-11-27T16:09:49.930Z,11.79
2022-11-27T16:12:19.899Z,11.79
2022-11-27T16:14:49.927Z,11.83
2022-11-27T16:17:20.798Z,11.85
2022-11-27T16:19:50.802Z,11.76
2022-11-27T16:22:20.835Z,11.78
2022-11-27T16:24:53.377Z,11.81
2022-11-27T16:27:26.597Z,11.80
2022-11-27T16:29:56.549Z,11.74
2022-11-27T16:32:27.098Z,11.66
2022-11-27T16:34:57.228Z,11.57
2022-11-27T16:37:27.304Z,11.64
2022-11-27T16:40:00.036Z,11.66
2022-11-27T16:42:31.322Z,11.65
2022-11-27T16:45:01.279Z,11.67
2022-11-27T16:47:33.955Z,11.55
2022-11-27T16:50:05.100Z,11.60
2022-11-27T16:52:36.862Z,11.47
2022-11-27T16:55:10.188Z,11.50
2022-11-27T16:57:41.082Z,11.56
2022-11-27T17:00:11.869Z,11.54
2022-11-27T17:02:41.949Z,11.52
2022-11-27T17:05:12.170Z,11.43
2022-11-27T17:07:42.688Z,11.40
2022-11-27T17:10:15.359Z,11.44
2022-11-27T17:12:45.464Z,11.40
2022-11-27T17:15:15.717Z,11.37
2022-11-27T17:17:46.353Z,11.33
2022-11-27T17:20:16.397Z,11.32
2022-11-27T17:22:46.739Z,11.25
2022-11-27T17:25:19.365Z,11.30
2022-11-27T17:27:51.716Z,11.30
2022-11-27T17:30:22.007Z,11.22
2022-11-27T17:32:51.969Z,11.23
2022-11-27T17:35:21.866Z,11.24
2022-11-27T17:37:51.821Z,11.26
2022-11-27T17:40:24.399Z,11.23
2022-11-27T17:42:54.318Z,11.19
2022-11-27T17:45:24.318Z,11.23
2022-11-27T17:47:54.311Z,11.07
2022-11-27T17:50:24.364Z,11.09
2022-11-27T17:52:55.868Z,11.08
2022-11-27T17:55:28.810Z,10.90
2022-11-27T17:57:58.825Z,10.94
2022-11-27T18:00:28.829Z,10.92
2022-11-27T18:03:03.364Z,10.95
2022-11-27T18:05:39.821Z,10.91
2022-11-27T18:08:13.404Z,10.87
2022-11-27T18:10:46.448Z,10.81
2022-11-27T18:13:18.223Z,10.80
2022-11-27T18:15:48.241Z,10.65
2022-11-27T18:18:18.398Z,10.83
2022-11-27T18:20:48.612Z,10.85
2022-11-27T18:23:18.618Z,10.83
2022-11-27T18:25:51.382Z,10.81
2022-11-27T18:28:21.587Z,10.77
2022-11-27T18:30:51.621Z,10.74
2022-11-27T18:33:21.653Z,10.73
2022-11-27T18:35:54.817Z,10.74
2022-11-27T18:38:25.031Z,10.78
2022-11-27T18:40:57.718Z,10.56
2022-11-27T18:43:27.776Z,10.64
2022-11-27T18:46:00.650Z,10.55
2022-11-27T18:48:30.991Z,10.68
2022-11-27T18:51:06.701Z,10.63
2022-11-27T18:53:37.358Z,10.36
2022-11-27T18:56:13.023Z,10.13
2022-11-27T18:58:44.725Z,10.34
2022-11-27T19:01:17.227Z,10.43
2022-11-27T19:03:50.513Z,10.47
2022-11-27T19:06:22.587Z,10.09
2022-11-27T19:08:54.162Z,10.32
2022-11-27T19:11:28.570Z,10.37
2022-11-27T19:14:00.193Z,10.39
2022-11-27T19:16:34.089Z,10.47
2022-11-27T19:19:05.929Z,10.45
2022-11-27T19:21:37.839Z,10.53
2022-11-27T19:24:08.569Z,10.51
2022-11-27T19:26:41.201Z,10.41
2022-11-27T19:29:14.531Z,10.42
2022-11-27T19:31:44.659Z,10.42
2022-11-27T19:34:15.471Z,10.42
2022-11-27T19:36:48.296Z,10.33
2022-11-27T19:39:19.388Z,10.31
2022-11-27T19:41:57.845Z,10.32
2022-11-27T19:44:28.086Z,10.34
2022-11-27T19:46:58.141Z,10.30
2022-11-27T19:49:28.246Z,10.30
2022-11-27T19:51:59.991Z,10.08
2022-11-27T19:54:35.856Z,10.03
2022-11-27T19:57:08.589Z,10.24
2022-11-27T19:59:38.719Z,10.32
2022-11-27T20:02:09.547Z,9.88
2022-11-27T20:04:40.049Z,10.14
2022-11-27T20:07:10.453Z,10.12
2022-11-27T20:09:40.406Z,10.10
2022-11-27T20:12:16.983Z,10.17
2022-11-27T20:14:47.071Z,10.22
2022-11-27T20:17:21.359Z,10.20
2022-11-27T20:19:51.667Z,10.24
2022-11-27T20:22:21.916Z,10.22
2022-11-27T20:25:17.935Z,10.21
2022-11-27T20:27:46.143Z,10.18
2022-11-27T20:30:18.795Z,10.13
2022-11-27T20:32:49.015Z,9.94
2022-11-27T20:35:19.284Z,9.97
2022-11-27T20:37:51.339Z,10.10
2022-11-27T20:40:23.833Z,10.16
2022-11-27T20:42:59.797Z,10.19
2022-11-27T20:45:32.484Z,10.16
2022-11-27T20:48:05.120Z,10.14
2022-11-27T20:50:35.694Z,10.06
2022-11-27T20:53:06.790Z,10.06
2022-11-27T20:55:37.819Z,9.99
2022-11-27T20:58:12.170Z,10.06
2022-11-27T21:00:42.921Z,9.88
2022-11-27T21:03:15.849Z,10.02
2022-11-27T21:05:48.183Z,9.71
2022-11-27T21:08:18.390Z,9.88
2022-11-27T21:10:53.816Z,9.91
2022-11-27T21:13:26.663Z,9.82
2022-11-27T21:15:59.506Z,9.79
2022-11-27T21:18:33.382Z,9.52
2022-11-27T21:21:08.869Z,9.75
2022-11-27T21:23:40.729Z,9.86
2022-11-27T21:26:11.607Z,9.91
2022-11-27T21:28:47.661Z,9.82
2022-11-27T21:31:20.379Z,9.76
2022-11-27T21:33:52.724Z,9.58
2022-11-27T21:36:24.897Z,9.47
2022-11-27T21:38:56.202Z,9.57
2022-11-27T21:41:26.742Z,9.69
2022-11-27T21:44:03.800Z,9.60
2022-11-27T21:46:35.997Z,9.73
2022-11-27T21:49:08.592Z,9.73
2022-11-27T21:51:39.837Z,9.61
2022-11-27T21:54:16.258Z,9.38
2022-11-27T21:56:46.353Z,9.59
2022-11-27T21:59:18.930Z,9.34
2022-11-27T22:01:49.997Z,9.53
2022-11-27T22:04:21.859Z,9.61
2022-11-27T22:06:58.484Z,9.66
2022-11-27T22:09:30.299Z,9.54
2022-11-27T22:12:00.241Z,9.60
2022-11-27T22:14:33.766Z,9.56
2022-11-27T22:17:03.788Z,9.48
2022-11-27T22:19:36.340Z,9.41
2022-11-27T22:22:06.365Z,9.38
2022-11-27T22:24:36.487Z,8.98
2022-11-27T22:27:08.175Z,9.33
2022-11-27T22:29:41.089Z,8.94
2022-11-27T22:32:12.602Z,9.19
2022-11-27T22:34:43.668Z,9.34
2022-11-27T22:37:14.091Z,9.40
2022-11-27T22:39:48.614Z,9.41
2022-11-27T22:42:18.713Z,9.43
2022-11-27T22:44:51.460Z,9.40
2022-11-27T22:47:21.482Z,9.44
2022-11-27T22:49:51.625Z,9.49
2022-11-27T22:52:21.692Z,9.43
2022-11-27T22:54:51.650Z,9.31
2022-11-27T22:57:22.333Z,9.40
2022-11-27T22:59:54.937Z,9.48
2022-11-27T23:02:24.969Z,9.44
2022-11-27T23:04:55.271Z,9.41
2022-11-27T23:07:26.366Z,9.38
2022-11-27T23:09:56.400Z,9.40
2022-11-27T23:12:26.487Z,9.37
2022-11-27T23:14:59.029Z,9.31
2022-11-27T23:17:29.018Z,9.36
2022-11-27T23:19:59.081Z,9.38
2022-11-27T23:22:29.051Z,9.36
2022-11-27T23:24:59.009Z,9.33
2022-11-27T23:27:28.998Z,9.28
2022-11-27T23:30:01.563Z,9.21
2022-11-27T23:32:31.540Z,9.21
2022-11-27T23:35:01.614Z,9.19
2022-11-27T23:37:32.881Z,9.17
2022-11-27T23:40:02.828Z,9.11
2022-11-27T23:42:32.777Z,9.17
2022-11-27T23:45:05.410Z,9.11
2022-11-27T23:47:35.326Z,9.09
2022-11-27T23:50:06.177Z,9.07
2022-11-27T23:52:36.414Z,9.00
2022-11-27T23:55:06.521Z,9.04
2022-11-27T23:57:36.415Z,9.02
